createdAt,value
2023-05-06T00:01:25.273Z,17.83
2023-05-06T00:03:52.099Z,23.63
2023-05-06T00:06:18.787Z,25.67
2023-05-06T00:08:46.065Z,24.75
2023-05-06T00:11:13.670Z,20.42
2023-05-06T00:13:41.201Z,21.30
2023-05-06T00:16:07.827Z,20.85
2023-05-06T00:18:34.346Z,18.17
2023-05-06T00:21:00.809Z,18.17
2023-05-06T00:23:27.242Z,29.90
2023-05-06T00:25:54.726Z,20.50
2023-05-06T00:28:21.277Z,20.05
2023-05-06T00:30:47.785Z,30.67
2023-05-06T00:33:14.209Z,40.95
2023-05-06T00:35:40.725Z,24.60
2023-05-06T00:38:11.346Z,45.05
2023-05-06T00:40:38.340Z,29.40
2023-05-06T00:43:04.783Z,26.80
2023-05-06T00:45:31.364Z,24.30
2023-05-06T00:47:58.933Z,24.42
2023-05-06T00:50:28.168Z,20.88
2023-05-06T00:52:55.399Z,34.97
2023-05-06T00:55:22.052Z,25.58
2023-05-06T00:57:51.876Z,19.67
2023-05-06T01:00:20.147Z,20.08
2023-05-06T01:02:48.322Z,23.58
2023-05-06T01:05:21.078Z,22.52
2023-05-06T01:08:05.748Z,18.95
2023-05-06T01:10:35.700Z,19.45
2023-05-06T01:13:11.976Z,18.35
2023-05-06T01:15:44.708Z,23.27
2023-05-06T01:18:17.855Z,20.55
2023-05-06T01:20:49.698Z,19.08
2023-05-06T01:23:16.783Z,20.35
2023-05-06T01:25:43.348Z,18.77
2023-05-06T01:28:11.537Z,20.30
2023-05-06T01:31:00.820Z,19.63
2023-05-06T01:36:26.454Z,18.60
2023-05-06T01:38:55.714Z,24.67
2023-05-06T01:41:24.080Z,19.98
2023-05-06T01:43:53.383Z,17.95
2023-05-06T01:46:21.780Z,21.58
2023-05-06T01:48:56.587Z,18.08
2023-05-06T01:51:23.680Z,19.05
2023-05-06T01:53:50.234Z,19.88
2023-05-06T01:56:17.388Z,17.20
2023-05-06T01:58:43.856Z,17.13
2023-05-06T02:01:10.505Z,20.50
2023-05-06T02:03:37.678Z,20.70
2023-05-06T02:06:04.821Z,23.20
2023-05-06T02:08:31.339Z,21.20
2023-05-06T02:10:57.778Z,17.45
2023-05-06T02:13:24.205Z,16.10
2023-05-06T02:15:54.650Z,20.35
2023-05-06T02:18:21.149Z,19.27
2023-05-06T02:20:47.660Z,18.17
2023-05-06T02:23:14.141Z,19.50
2023-05-06T02:25:40.587Z,19.38
2023-05-06T02:28:07.017Z,19.23
2023-05-06T02:30:34.575Z,16.92
2023-05-06T02:33:01.138Z,14.00
2023-05-06T02:35:27.652Z,16.30
2023-05-06T02:37:54.175Z,20.67
2023-05-06T02:40:20.685Z,19.08
2023-05-06T02:42:47.264Z,21.05
2023-05-06T02:45:13.786Z,20.20
2023-05-06T02:47:40.526Z,17.27
2023-05-06T02:50:07.345Z,16.02
2023-05-06T02:52:34.550Z,12.90
2023-05-06T02:55:01.628Z,13.38
2023-05-06T02:57:28.076Z,13.77
2023-05-06T02:59:54.614Z,12.60
2023-05-06T03:02:21.071Z,14.30
2023-05-06T03:04:47.510Z,16.27
2023-05-06T03:07:14.023Z,18.77
2023-05-06T03:09:40.603Z,16.30
2023-05-06T03:12:07.052Z,16.40
2023-05-06T03:14:33.543Z,14.98
2023-05-06T03:17:00.036Z,16.67
2023-05-06T03:19:26.514Z,15.57
2023-05-06T03:21:52.911Z,17.10
2023-05-06T03:24:19.331Z,17.73
2023-05-06T03:26:45.733Z,18.90
2023-05-06T03:29:12.131Z,22.35
2023-05-06T03:31:38.677Z,22.40
2023-05-06T03:34:05.287Z,23.23
2023-05-06T03:36:31.824Z,15.70
2023-05-06T03:38:58.260Z,18.17
2023-05-06T03:41:24.818Z,16.73
2023-05-06T03:43:52.329Z,16.58
2023-05-06T03:46:18.772Z,19.90
2023-05-06T03:48:45.262Z,19.52
2023-05-06T03:51:11.870Z,18.35
2023-05-06T03:53:38.312Z,16.15
2023-05-06T03:56:05.043Z,17.25
2023-05-06T03:58:31.559Z,15.80
2023-05-06T04:01:00.780Z,18.25
2023-05-06T04:03:27.263Z,15.48
2023-05-06T04:05:53.800Z,15.75
2023-05-06T04:08:20.286Z,16.30
2023-05-06T04:10:46.768Z,16.77
2023-05-06T04:13:13.219Z,17.77
2023-05-06T04:15:41.468Z,14.38
2023-05-06T04:18:08.314Z,12.40
2023-05-06T04:20:34.917Z,14.50
2023-05-06T04:23:02.219Z,11.93
2023-05-06T04:25:28.799Z,16.20
2023-05-06T04:27:55.215Z,15.20
2023-05-06T04:30:22.382Z,17.70
2023-05-06T04:32:48.870Z,15.82
2023-05-06T04:35:16.584Z,14.10
2023-05-06T04:37:43.487Z,16.02
2023-05-06T04:40:12.116Z,17.10
2023-05-06T04:42:38.880Z,16.90
2023-05-06T04:45:05.808Z,18.30
2023-05-06T04:47:32.430Z,14.77
2023-05-06T04:49:59.070Z,16.30
2023-05-06T04:52:26.163Z,11.65
2023-05-06T04:54:52.580Z,15.50
2023-05-06T04:57:18.980Z,10.20
2023-05-06T04:59:46.262Z,12.23
2023-05-06T05:02:12.928Z,13.23
2023-05-06T05:04:39.597Z,15.93
2023-05-06T05:07:07.379Z,15.40
2023-05-06T05:09:34.952Z,15.13
2023-05-06T05:12:02.552Z,15.63
2023-05-06T05:14:29.018Z,13.27
2023-05-06T05:16:55.772Z,19.63
2023-05-06T05:19:22.243Z,13.82
2023-05-06T05:21:48.985Z,13.40
2023-05-06T05:24:15.950Z,11.60
2023-05-06T05:26:42.442Z,14.38
2023-05-06T05:29:08.873Z,15.32
2023-05-06T05:31:35.460Z,17.58
2023-05-06T05:34:01.980Z,18.52
2023-05-06T05:36:28.598Z,17.33
2023-05-06T05:38:55.070Z,15.52
2023-05-06T05:41:21.507Z,11.23
2023-05-06T05:43:47.962Z,15.13
2023-05-06T05:46:14.527Z,11.48
2023-05-06T05:48:41.001Z,14.80
2023-05-06T05:51:07.452Z,11.57
2023-05-06T05:53:33.970Z,14.88
2023-05-06T05:56:00.394Z,16.65
2023-05-06T05:58:26.896Z,14.23
2023-05-06T06:00:53.418Z,11.27
2023-05-06T06:03:19.949Z,10.52
2023-05-06T06:05:46.563Z,12.45
2023-05-06T06:08:13.101Z,12.10
2023-05-06T06:10:39.567Z,10.52
2023-05-06T06:13:06.308Z,10.27
2023-05-06T06:15:32.845Z,9.50
2023-05-06T06:17:59.481Z,8.13
2023-05-06T06:20:26.546Z,10.88
2023-05-06T06:22:53.021Z,8.75
2023-05-06T06:25:20.029Z,15.63
2023-05-06T06:27:46.509Z,14.00
2023-05-06T06:30:13.296Z,10.73
2023-05-06T06:32:49.318Z,7.20
2023-05-06T06:37:42.499Z,9.80
2023-05-06T06:40:10.752Z,10.35
2023-05-06T06:42:37.895Z,10.13
2023-05-06T06:45:05.169Z,8.98
2023-05-06T06:47:31.662Z,7.40
2023-05-06T06:49:58.077Z,6.70
2023-05-06T06:52:24.570Z,7.00
2023-05-06T06:54:50.973Z,6.60
2023-05-06T06:57:17.413Z,7.50
2023-05-06T06:59:43.818Z,9.38
2023-05-06T07:02:10.262Z,9.27
2023-05-06T07:04:36.912Z,4.82
2023-05-06T07:07:03.368Z,7.55
2023-05-06T07:09:29.814Z,6.25
2023-05-06T07:11:56.574Z,5.65
2023-05-06T07:14:23.019Z,5.00
2023-05-06T07:16:51.341Z,4.18
2023-05-06T07:19:18.095Z,4.45
2023-05-06T07:21:44.596Z,10.77
2023-05-06T07:24:11.263Z,5.95
2023-05-06T07:26:38.191Z,4.72
2023-05-06T07:29:04.699Z,4.25
2023-05-06T07:31:34.199Z,6.38
2023-05-06T07:34:00.872Z,5.35
2023-05-06T07:36:27.619Z,2.83
2023-05-06T07:38:54.259Z,3.13
2023-05-06T07:41:21.062Z,6.50
2023-05-06T07:43:47.820Z,3.85
2023-05-06T07:46:14.450Z,4.13
2023-05-06T07:48:40.918Z,3.22
2023-05-06T07:51:07.413Z,3.42
2023-05-06T07:53:33.911Z,4.82
2023-05-06T07:56:02.551Z,3.88
2023-05-06T07:58:30.502Z,3.63
2023-05-06T08:00:57.404Z,2.28
2023-05-06T08:03:24.317Z,4.43
2023-05-06T08:05:51.575Z,6.93
2023-05-06T08:08:18.997Z,3.50
2023-05-06T08:10:45.696Z,3.60
2023-05-06T08:13:12.243Z,2.85
2023-05-06T08:15:39.359Z,3.55
2023-05-06T08:18:20.903Z,2.63
2023-05-06T08:20:48.646Z,2.42
2023-05-06T08:23:15.359Z,2.38
2023-05-06T08:25:41.909Z,3.42
2023-05-06T08:28:08.394Z,2.25
2023-05-06T08:30:34.962Z,3.53
2023-05-06T08:33:02.298Z,1.90
2023-05-06T08:35:35.203Z,4.22
2023-05-06T08:38:01.898Z,2.08
2023-05-06T08:40:32.628Z,2.70
2023-05-06T08:42:59.832Z,2.85
2023-05-06T08:45:29.271Z,4.55
2023-05-06T08:47:56.203Z,1.45
2023-05-06T08:50:23.650Z,1.98
2023-05-06T08:52:50.852Z,2.45
2023-05-06T08:55:19.045Z,1.65
2023-05-06T08:57:46.260Z,5.30
2023-05-06T09:00:13.999Z,2.50
2023-05-06T09:02:43.306Z,1.75
2023-05-06T09:05:11.432Z,2.47
2023-05-06T09:07:38.227Z,3.08
2023-05-06T09:10:17.844Z,4.25
2023-05-06T09:12:44.321Z,2.72
2023-05-06T09:15:11.595Z,2.13
2023-05-06T09:17:38.593Z,3.08
2023-05-06T09:20:09.506Z,2.22
2023-05-06T09:22:38.458Z,3.30
2023-05-06T09:25:05.697Z,2.67
2023-05-06T09:27:36.434Z,2.90
2023-05-06T09:30:07.375Z,2.88
2023-05-06T09:32:36.723Z,2.05
2023-05-06T09:35:05.223Z,2.15
2023-05-06T09:37:31.802Z,2.65
2023-05-06T09:40:00.382Z,2.83
2023-05-06T09:42:28.877Z,3.78
2023-05-06T09:44:58.590Z,3.47
2023-05-06T09:47:28.065Z,3.08
2023-05-06T09:49:59.296Z,2.80
2023-05-06T09:52:29.698Z,3.55
2023-05-06T09:54:57.267Z,5.22
2023-05-06T09:57:24.366Z,2.38
2023-05-06T09:59:54.716Z,3.75
2023-05-06T10:02:23.683Z,3.20
2023-05-06T10:04:52.062Z,4.45
2023-05-06T10:07:22.787Z,4.18
2023-05-06T10:09:51.316Z,3.10
2023-05-06T10:12:19.394Z,4.00
2023-05-06T10:14:46.144Z,2.08
2023-05-06T10:17:13.795Z,2.70
2023-05-06T10:19:44.949Z,3.33
2023-05-06T10:22:22.479Z,3.63
2023-05-06T10:25:03.468Z,2.95
2023-05-06T10:27:32.913Z,2.67
2023-05-06T10:30:00.452Z,3.65
2023-05-06T10:32:32.350Z,3.95
2023-05-06T10:35:12.615Z,5.20
2023-05-06T10:37:40.886Z,2.00
2023-05-06T10:40:10.046Z,2.92
2023-05-06T10:42:36.452Z,2.70
2023-05-06T10:45:04.971Z,2.33
2023-05-06T10:47:57.539Z,3.78
2023-05-06T10:50:27.736Z,3.58
2023-05-06T10:53:01.645Z,2.42
2023-05-06T10:55:33.588Z,4.68
2023-05-06T10:58:16.283Z,3.50
2023-05-06T11:00:53.721Z,5.07
2023-05-06T11:03:23.606Z,3.88
2023-05-06T11:08:25.976Z,3.10
2023-05-06T11:10:55.736Z,6.35
2023-05-06T11:13:27.545Z,4.60
2023-05-06T11:15:58.441Z,4.75
2023-05-06T11:18:27.984Z,2.00
2023-05-06T11:21:03.683Z,2.35
2023-05-06T11:23:42.721Z,3.97
2023-05-06T11:26:10.555Z,6.90
2023-05-06T11:28:37.581Z,4.13
2023-05-06T11:31:04.268Z,4.03
2023-05-06T11:33:35.368Z,3.63
2023-05-06T11:36:03.194Z,3.00
2023-05-06T11:38:45.984Z,3.00
2023-05-06T11:41:13.400Z,3.08
2023-05-06T11:43:40.400Z,2.40
2023-05-06T11:46:07.137Z,3.80
2023-05-06T11:48:33.663Z,2.25
2023-05-06T11:51:00.418Z,2.88
2023-05-06T11:53:26.885Z,5.00
2023-05-06T11:55:54.211Z,3.80
2023-05-06T11:58:25.212Z,4.07
2023-05-06T12:00:57.210Z,4.07
2023-05-06T12:03:25.182Z,3.90
2023-05-06T12:05:52.137Z,3.15
2023-05-06T12:08:31.835Z,4.43
2023-05-06T12:11:01.692Z,2.67
2023-05-06T12:13:28.905Z,2.50
2023-05-06T12:15:57.785Z,2.72
2023-05-06T12:18:25.126Z,3.67
2023-05-06T12:20:55.601Z,6.07
2023-05-06T12:23:22.561Z,3.17
2023-05-06T12:26:05.837Z,3.63
2023-05-06T12:28:33.834Z,2.63
2023-05-06T12:31:01.364Z,4.00
2023-05-06T12:33:28.012Z,2.42
2023-05-06T12:36:06.565Z,3.15
2023-05-06T12:38:33.030Z,5.63
2023-05-06T12:40:59.512Z,3.10
2023-05-06T12:43:30.670Z,3.80
2023-05-06T12:46:05.781Z,6.93
2023-05-06T12:48:32.296Z,3.92
2023-05-06T12:50:58.767Z,2.88
2023-05-06T12:53:33.625Z,2.92
2023-05-06T12:56:00.237Z,3.50
2023-05-06T12:58:26.684Z,3.13
2023-05-06T13:00:53.095Z,4.65
2023-05-06T13:03:19.875Z,2.05
2023-05-06T13:05:48.184Z,3.92
2023-05-06T13:08:14.569Z,3.33
2023-05-06T13:10:41.024Z,9.63
2023-05-06T13:13:07.854Z,2.72
2023-05-06T13:15:35.026Z,2.78
2023-05-06T13:18:01.571Z,5.90
2023-05-06T13:20:28.007Z,3.80
2023-05-06T13:22:55.318Z,2.70
2023-05-06T13:25:22.177Z,3.05
2023-05-06T13:27:48.769Z,3.90
2023-05-06T13:30:15.322Z,2.53
2023-05-06T13:32:41.761Z,4.10
2023-05-06T13:35:08.909Z,4.15
2023-05-06T13:37:35.609Z,3.15
2023-05-06T13:40:02.047Z,3.60
2023-05-06T13:42:28.538Z,3.47
2023-05-06T13:44:55.004Z,2.15
2023-05-06T13:47:21.506Z,3.20
2023-05-06T13:49:47.871Z,4.13
2023-05-06T13:52:14.302Z,5.22
2023-05-06T13:54:40.767Z,4.45
2023-05-06T13:57:07.264Z,2.28
2023-05-06T13:59:33.729Z,3.25
2023-05-06T14:02:01.006Z,5.03
2023-05-06T14:04:27.584Z,3.90
2023-05-06T14:06:55.055Z,4.78
2023-05-06T14:09:21.455Z,2.58
2023-05-06T14:11:47.953Z,4.07
2023-05-06T14:14:15.473Z,5.35
2023-05-06T14:16:41.930Z,4.38
2023-05-06T14:19:08.327Z,2.70
2023-05-06T14:21:34.712Z,4.65
2023-05-06T14:24:01.328Z,5.28
2023-05-06T14:26:27.756Z,5.60
2023-05-06T14:28:54.249Z,6.85
2023-05-06T14:31:20.710Z,5.22
2023-05-06T14:33:47.120Z,6.15
2023-05-06T14:36:18.742Z,3.92
2023-05-06T14:38:45.165Z,7.43
2023-05-06T14:41:11.597Z,3.97
2023-05-06T14:43:38.091Z,5.68
2023-05-06T14:46:04.669Z,4.90
2023-05-06T14:48:31.933Z,4.68
2023-05-06T14:51:00.591Z,4.88
2023-05-06T14:53:27.046Z,4.22
2023-05-06T14:55:53.457Z,7.82
2023-05-06T14:58:19.836Z,7.35
2023-05-06T15:00:46.244Z,3.47
2023-05-06T15:03:12.648Z,3.88
2023-05-06T15:05:39.074Z,7.32
2023-05-06T15:08:05.838Z,4.93
2023-05-06T15:10:32.283Z,5.30
2023-05-06T15:12:58.731Z,3.45
2023-05-06T15:15:25.262Z,5.45
2023-05-06T15:17:52.400Z,3.30
2023-05-06T15:20:18.934Z,3.72
2023-05-06T15:22:45.314Z,3.78
2023-05-06T15:25:19.372Z,4.20
2023-05-06T15:27:49.155Z,3.67
2023-05-06T15:30:15.654Z,6.13
2023-05-06T15:32:42.230Z,2.50
2023-05-06T15:35:09.017Z,2.63
2023-05-06T15:37:35.706Z,4.40
2023-05-06T15:40:02.403Z,5.13
2023-05-06T15:42:29.656Z,3.67
2023-05-06T15:44:56.103Z,3.78
2023-05-06T15:47:22.525Z,7.30
2023-05-06T15:49:54.504Z,4.13
2023-05-06T15:52:22.871Z,3.42
2023-05-06T15:54:50.096Z,4.60
2023-05-06T15:57:17.212Z,3.70
2023-05-06T15:59:43.612Z,2.50
2023-05-06T16:04:39.549Z,3.40
2023-05-06T16:07:06.273Z,4.63
2023-05-06T16:09:32.725Z,5.40
2023-05-06T16:11:59.161Z,4.40
2023-05-06T16:14:25.584Z,4.22
2023-05-06T16:16:52.154Z,2.65
2023-05-06T16:19:18.597Z,2.35
2023-05-06T16:21:45.065Z,2.85
2023-05-06T16:24:11.496Z,2.90
2023-05-06T16:26:38.026Z,3.40
2023-05-06T16:29:04.537Z,2.67
2023-05-06T16:31:32.288Z,4.68
2023-05-06T16:33:58.836Z,3.92
2023-05-06T16:36:25.372Z,7.28
2023-05-06T16:38:51.766Z,3.38
2023-05-06T16:41:18.282Z,3.00
2023-05-06T16:43:44.739Z,4.40
2023-05-06T16:46:11.225Z,3.83
2023-05-06T16:48:37.815Z,2.20
2023-05-06T16:51:04.354Z,4.53
2023-05-06T16:53:30.755Z,1.65
2023-05-06T16:55:57.166Z,3.42
2023-05-06T16:58:23.898Z,1.83
2023-05-06T17:00:53.380Z,1.85
2023-05-06T17:03:20.014Z,1.98
2023-05-06T17:05:46.945Z,2.83
2023-05-06T17:08:13.769Z,1.88
2023-05-06T17:10:40.513Z,2.50
2023-05-06T17:13:07.108Z,3.63
2023-05-06T17:15:33.541Z,3.38
2023-05-06T17:18:00.071Z,3.90
2023-05-06T17:20:26.844Z,1.63
2023-05-06T17:22:53.708Z,5.55
2023-05-06T17:25:20.117Z,3.95
2023-05-06T17:27:46.723Z,8.13
2023-05-06T17:30:14.602Z,13.40
2023-05-06T17:32:42.014Z,13.20
2023-05-06T17:35:09.200Z,4.85
2023-05-06T17:37:35.898Z,3.65
2023-05-06T17:40:03.339Z,6.78
2023-05-06T17:42:31.017Z,3.25
2023-05-06T17:44:57.492Z,3.08
2023-05-06T17:47:24.003Z,3.60
2023-05-06T17:49:53.863Z,3.72
2023-05-06T17:52:20.574Z,2.85
2023-05-06T17:54:56.955Z,2.53
2023-05-06T17:57:33.932Z,3.78
2023-05-06T18:00:00.500Z,3.33
2023-05-06T18:02:26.991Z,2.63
2023-05-06T18:04:53.533Z,2.22
2023-05-06T18:07:19.978Z,2.55
2023-05-06T18:09:51.782Z,4.18
2023-05-06T18:12:19.347Z,3.10
2023-05-06T18:14:45.972Z,4.43
2023-05-06T18:17:12.434Z,5.35
2023-05-06T18:19:43.012Z,2.30
2023-05-06T18:22:09.550Z,4.43
2023-05-06T18:24:37.164Z,4.80
2023-05-06T18:27:04.377Z,2.63
2023-05-06T18:29:32.635Z,5.53
2023-05-06T18:31:59.555Z,6.45
2023-05-06T18:34:25.962Z,2.10
2023-05-06T18:36:52.373Z,2.10
2023-05-06T18:39:18.797Z,4.88
2023-05-06T18:41:45.204Z,2.90
2023-05-06T18:44:11.856Z,5.88
2023-05-06T18:46:38.294Z,4.40
2023-05-06T18:49:04.728Z,4.43
2023-05-06T18:51:31.907Z,3.10
2023-05-06T18:53:58.364Z,4.20
2023-05-06T18:56:25.264Z,4.22
2023-05-06T18:58:52.189Z,3.20
2023-05-06T19:01:18.740Z,2.65
2023-05-06T19:03:45.391Z,2.22
2023-05-06T19:06:12.404Z,3.92
2023-05-06T19:08:38.923Z,4.72
2023-05-06T19:11:05.534Z,3.15
2023-05-06T19:13:32.001Z,3.97
2023-05-06T19:15:58.404Z,4.20
2023-05-06T19:18:24.865Z,4.35
2023-05-06T19:20:52.424Z,3.70
2023-05-06T19:23:20.129Z,3.08
2023-05-06T19:25:46.788Z,1.75
2023-05-06T19:28:13.237Z,4.05
2023-05-06T19:30:39.821Z,3.50
2023-05-06T19:41:46.204Z,2.25
2023-05-06T19:44:13.172Z,1.98
2023-05-06T19:46:39.676Z,3.15
2023-05-06T19:49:06.386Z,3.33
2023-05-06T19:51:32.820Z,2.33
2023-05-06T19:53:59.298Z,3.70
2023-05-06T19:56:25.717Z,3.10
2023-05-06T19:58:52.108Z,2.47
2023-05-06T20:01:22.452Z,4.20
2023-05-06T20:06:15.411Z,1.55
2023-05-06T20:08:41.799Z,7.97
2023-05-06T20:11:08.328Z,2.00
2023-05-06T20:13:34.860Z,3.00
2023-05-06T20:16:01.948Z,2.40
2023-05-06T20:18:28.437Z,3.25
2023-05-06T20:20:54.856Z,2.22
2023-05-06T20:23:21.346Z,5.03
2023-05-06T20:25:47.847Z,2.38
2023-05-06T20:28:14.246Z,5.18
2023-05-06T20:30:40.779Z,2.53
2023-05-06T20:33:07.819Z,2.50
2023-05-06T20:35:38.365Z,3.72
2023-05-06T20:38:05.996Z,4.78
2023-05-06T20:40:34.014Z,4.35
2023-05-06T20:43:00.479Z,2.42
2023-05-06T20:45:27.614Z,2.63
2023-05-06T20:47:54.126Z,2.58
2023-05-06T20:50:20.703Z,2.90
2023-05-06T20:52:47.563Z,2.10
2023-05-06T20:55:14.685Z,2.88
2023-05-06T20:57:44.480Z,3.10
2023-05-06T21:00:11.591Z,4.28
2023-05-06T21:02:41.311Z,4.70
2023-05-06T21:17:34.819Z,5.70
2023-05-06T21:20:02.370Z,5.55
2023-05-06T21:22:29.951Z,4.82
2023-05-06T21:24:56.525Z,4.70
2023-05-06T21:27:22.977Z,4.60
2023-05-06T21:29:49.519Z,4.18
2023-05-06T21:32:16.026Z,6.07
2023-05-06T21:34:42.499Z,7.00
2023-05-06T21:37:09.109Z,6.85
2023-05-06T21:39:35.968Z,4.25
2023-05-06T21:42:02.386Z,5.03
2023-05-06T21:44:28.907Z,4.82
2023-05-06T21:46:55.439Z,6.63
2023-05-06T21:49:22.308Z,7.45
2023-05-06T21:51:48.853Z,6.47
2023-05-06T21:54:16.717Z,6.00
2023-05-06T21:56:43.163Z,8.02
2023-05-06T21:59:09.569Z,8.00
2023-05-06T22:01:36.253Z,6.90
2023-05-06T22:04:04.787Z,8.65
2023-05-06T22:06:31.429Z,9.57
2023-05-06T22:08:57.815Z,5.97
2023-05-06T22:11:24.758Z,11.88
2023-05-06T22:13:51.239Z,19.05
2023-05-06T22:16:17.698Z,14.48
2023-05-06T22:18:47.475Z,10.25
2023-05-06T22:21:14.036Z,7.93
2023-05-06T22:23:40.624Z,19.08
2023-05-06T22:26:07.207Z,12.93
2023-05-06T22:28:33.957Z,12.40
2023-05-06T22:31:00.346Z,7.35
2023-05-06T22:33:27.173Z,7.72
2023-05-06T22:35:53.963Z,12.60
2023-05-06T22:38:20.360Z,13.50
2023-05-06T22:40:46.930Z,11.27
2023-05-06T22:43:13.343Z,12.32
2023-05-06T22:45:39.798Z,10.23
2023-05-06T22:48:06.393Z,11.25
2023-05-06T22:50:32.981Z,14.45
2023-05-06T22:53:04.897Z,9.45
2023-05-06T22:55:38.374Z,9.20
2023-05-06T22:58:04.915Z,16.55
2023-05-06T23:00:31.497Z,11.32
2023-05-06T23:02:58.110Z,8.63
2023-05-06T23:05:24.516Z,10.30
2023-05-06T23:07:50.960Z,6.25
2023-05-06T23:10:17.414Z,8.43
2023-05-06T23:12:43.872Z,6.15
2023-05-06T23:15:11.619Z,6.90
2023-05-06T23:17:38.170Z,9.30
2023-05-06T23:20:04.963Z,10.02
2023-05-06T23:22:31.404Z,8.52
2023-05-06T23:24:57.808Z,9.98
2023-05-06T23:27:39.842Z,8.93
2023-05-06T23:30:08.026Z,7.88
2023-05-06T23:32:34.496Z,8.10
2023-05-06T23:35:01.688Z,9.43
2023-05-06T23:37:29.194Z,10.93
2023-05-06T23:39:56.859Z,8.73
2023-05-06T23:42:25.000Z,8.25
2023-05-06T23:44:52.438Z,6.75
2023-05-06T23:47:19.018Z,8.07
2023-05-06T23:49:45.599Z,9.70
2023-05-06T23:52:12.147Z,7.90
2023-05-06T23:54:38.805Z,11.75
2023-05-06T23:57:05.335Z,9.80
2023-05-06T23:59:32.496Z,10.82
